Whitesprings, Pennsylvania
Current Conditions -  °F | °C
As of 3:53 AM on Thursday 23 Oct 2014 (Local Time) from KSEG Reporting Station
Overcast Overcast  
Wind Chill: 51°   Ceiling: 7000
Heat Index: 51°   Visibility: 10mi
Dew Point: 43°   Wind: 9mph
Humidity: 74%   Direction: 360°N
Pressure: 29.91"   Gusts: NA
Location:  40.9428°N, 77.0748°W
Report Text: KSEG 230753Z AUTO 36008KT 10SM OVC070 11/06 A2991 RMK AO2 RAB17E48 SLP129 P0000 T01060061
Loading
Personal Weather Stations






























Interactive Weather Map
Tropical Storm Tracking
New forecast layout! Learn more

10-Day Weather Forecast

Advertisements
Track Severe Weather on mobile